バルセロナ・エル・プラット国際空港の過去48時間の天気

バルセロナ・エル・プラット国際空港 (Barcelona / Aeropuerto)

現在時刻: 9/25 23:09 CEST (9/25 21:09 UTC) 以下の時間は現地時間です。

過去48時間のMETAR気象情報
時間 風向 風速(m/s) 視程 気温(℃) 湿度(%) 気圧(hPa) 天気現象
25 22:30 北東 2 10km以上 21 53 1013
25 22:00 北東 2 10km以上 20 60 1013
25 21:30 東北東 2 10km以上 20 60 1013
25 21:00 3 10km以上 21 56 1013
25 20:30 2 10km以上 21 56 1013
25 20:00 2 10km以上 21 56 1012
25 19:30 東南東 2 10km以上 21 53 1012
25 19:00 東南東 2 10km以上 21 53 1012
25 18:30 南南東 3 10km以上 22 53 1012
25 18:00 南南東 4 10km以上 21 56 1012
25 17:30 南南東 4 10km以上 22 53 1012
25 17:00 南東 4 10km以上 22 53 1012
25 16:30 南東 4 10km以上 22 53 1012
25 16:00 南南東 4 10km以上 22 57 1012
25 15:30 南東 4 10km以上 22 60 1012
25 15:00 南東 4 10km以上 21 60 1013
25 14:30 東南東 3 10km以上 21 56 1013
25 14:00 南東 3 10km以上 22 53 1013
25 13:30 3 10km以上 22 53 1013
25 13:00 西北西 2 10km以上 21 53 1013
25 12:30 北北西 3 10km以上 20 56 1013
25 12:00 北北西 4 10km以上 20 56 1013
25 11:30 北北西 5 10km以上 19 60 1013
25 11:00 北北西 6 10km以上 19 56 1013
25 10:30 北北西 7 10km以上 18 60 1013
25 10:00 北北西 6 10km以上 17 63 1013
25 09:30 北北西 5 10km以上 16 68 1013
25 09:00 北北西 6 10km以上 16 68 1013
25 08:30 北北西 6 10km以上 16 72 1012
25 08:00 北北西 5 10km以上 16 72 1012
25 07:30 北北西 5 10km以上 16 72 1012
25 07:00 北北西 5 10km以上 17 72 1012
25 06:30 北西 4 10km以上 17 77 1012
25 06:00 北西 4 10km以上 17 83 1012
25 05:30 北北西 4 10km以上 16 88 1012
25 05:00 北北西 3 10km以上 16 88 1012
25 04:30 北北西 2 10km以上 17 83 1012
25 04:00 北北西 4 10km以上 17 83 1012
25 03:30 北西 5 10km以上 17 83 1012
25 03:00 北北西 4 10km以上 17 77 1012
25 02:30 北西 3 10km以上 17 83 1013
25 02:00 3 10km以上 18 77 1012
25 01:30 北西 2 10km以上 18 77 1013
25 01:00 3 10km以上 18 77 1012
25 00:30 北北東 3 10km以上 19 78 1012
25 00:00 北東 5 10km以上 19 78 1012 弱い雨
24 23:30 東北東 5 10km以上 20 68 1012 弱い雨
24 23:00 東北東 7 10km以上 20 73 1012
24 22:30 東北東 7 10km以上 21 73 1012
24 22:00 東北東 7 10km以上 21 73 1012
24 21:30 7 10km以上 21 73 1012
24 21:00 6 10km以上 21 69 1012
24 20:30 6 10km以上 21 73 1012
24 20:00 東北東 5 10km以上 21 73 1011
24 19:30 5 10km以上 21 69 1011
24 19:00 5 10km以上 21 73 1011
24 18:30 5 10km以上 22 65 1011
24 18:00 5 10km以上 22 65 1011
24 17:30 5 10km以上 22 65 1011
24 17:00 6 10km以上 22 60 1011
24 16:30 東北東 6 10km以上 22 60 1011
24 16:00 東北東 6 10km以上 23 61 1012
24 15:30 東北東 6 10km以上 22 65 1012
24 15:00 6 10km以上 22 65 1012
24 14:30 5 10km以上 22 65 1013
24 14:00 東北東 5 10km以上 22 65 1013
24 13:30 北東 7 10km以上 22 69 1013
24 13:00 東北東 5 10km以上 22 69 1013
24 12:30 東北東 5 10km以上 21 73 1014
24 12:00 東北東 5 10km以上 21 73 1014
24 11:30 東北東 5 10km以上 20 83 1014
24 11:00 北東 4 10km以上 20 83 1014
24 10:30 北北東 4 10km以上 19 88 1013
24 10:00 北東 6 10km以上 19 88 1013
24 09:30 東北東 5 10km以上 19 88 1013
24 09:00 7 10km以上 21 78 1013
24 08:30 7 10km以上 20 88 1013
24 08:00 東北東 6 10km以上 18 94 1013
24 07:30 北北東 4 10km以上 18 94 1013
24 07:00 3 10km以上 18 88 1013
24 06:30 北北東 4 10km以上 18 88 1013
24 06:00 不定 1 10km以上 18 88 1012
24 05:30 不定 1 10km以上 18 88 1013
24 05:00 不定 1 10km以上 17 94 1012
24 04:30 不定 1 10km以上 17 94 1012 周辺で雷
24 04:00 1 10km以上 18 88 1012 周辺で雷
24 03:30 北東 1 10km以上 18 83 1012 周辺で雷
24 03:00 南東 2 10km以上 17 94 1013 周辺で雷
24 02:30 南南東 2 8000m 16 100 1014 雷雨
24 02:19 1 9000m 16 100 1014 雷雨
24 02:07 北北西 5 8000m 16 100 1013 雷雨
24 02:00 北西 8 1500m 16 94 1014 強い雷雨
24 01:30 不定 1 10km以上 21 88 1013
24 01:00 南南西 3 10km以上 21 88 1014
24 00:30 西南西 4 10km以上 21 88 1014
24 00:00 西南西 2 10km以上 21 88 1014
23 23:30 西南西 4 10km以上 21 88 1014
LEBL 252030Z 05004KT 9999 FEW042 SCT050 21/11 Q1013 NOSIG
LEBL 252000Z 04004KT 9999 SCT043 20/12 Q1013 NOSIG
LEBL 251930Z 07004KT 9999 SCT042 SCT050 20/12 Q1013 NOSIG
LEBL 251900Z 08005KT 9999 FEW040 SCT055 21/12 Q1013 NOSIG
LEBL 251830Z 09004KT 060V120 9999 SCT040 SCT050 21/12 Q1013 NOSIG
LEBL 251800Z 10003KT 070V130 9999 FEW040 21/12 Q1012 NOSIG
LEBL 251730Z 11004KT 090V150 9999 FEW045 21/11 Q1012 NOSIG
LEBL 251700Z 12003KT 080V170 9999 FEW040 21/11 Q1012 NOSIG
LEBL 251630Z 15005KT 120V190 9999 FEW040 22/12 Q1012 NOSIG
LEBL 251600Z 15007KT 120V190 9999 FEW040 21/12 Q1012 NOSIG
LEBL 251530Z 16007KT 120V190 9999 FEW040 22/12 Q1012 NOSIG
LEBL 251500Z 13007KT 100V180 9999 FEW040 22/12 Q1012 NOSIG
LEBL 251430Z 13008KT 110V170 9999 FEW040 22/12 Q1012 NOSIG
LEBL 251400Z 15007KT 120V200 9999 FEW035 22/13 Q1012 NOSIG
LEBL 251330Z 14007KT 080V200 9999 FEW040 22/14 Q1012 NOSIG
LEBL 251300Z 14007KT 110V170 9999 FEW035 21/13 Q1013 NOSIG
LEBL 251230Z 12005KT 090V200 9999 FEW030 21/12 Q1013 NOSIG
LEBL 251200Z 14005KT 110V180 9999 FEW030 22/12 Q1013 NOSIG
LEBL 251130Z 18005KT 060V230 9999 FEW030 22/12 Q1013 NOSIG
LEBL 251100Z 29003KT 9999 FEW025 21/11 Q1013 NOSIG
LEBL 251030Z 34005KT 300V020 9999 FEW025 20/11 Q1013 NOSIG
LEBL 251000Z 33008G18KT 9999 FEW020 20/11 Q1013 NOSIG
LEBL 250930Z 33009KT 280V010 9999 FEW020 19/11 Q1013 NOSIG
LEBL 250900Z 33011KT 300V020 9999 FEW020 19/10 Q1013 NOSIG
LEBL 250830Z 33013G23KT 280V080 9999 FEW020 18/10 Q1013 NOSIG
LEBL 250800Z 33011G22KT 300V360 9999 FEW020 17/10 Q1013 NOSIG
LEBL 250730Z 33010G22KT 290V010 9999 FEW020 16/10 Q1013 NOSIG
LEBL 250700Z 33011G21KT 290V010 9999 FEW020 16/10 Q1013 NOSIG
LEBL 250630Z 33012G22KT 9999 FEW020 16/11 Q1012 NOSIG
LEBL 250600Z 34010G24KT 290V020 9999 FEW020 16/11 Q1012 NOSIG
LEBL 250530Z 33010KT 9999 FEW030 SCT052 BKN064 16/11 Q1012 NOSIG
LEBL 250500Z 34010KT 9999 FEW030 BKN060 17/12 Q1012 NOSIG
LEBL 250430Z 32007KT 9999 FEW030 BKN060 17/13 Q1012 NOSIG
LEBL 250400Z 32008KT 9999 SCT053 17/14 Q1012 NOSIG
LEBL 250330Z 33007KT 9999 FEW053 16/14 Q1012 NOSIG
LEBL 250300Z 33005KT 9999 FEW050 16/14 Q1012 NOSIG
LEBL 250230Z 33004KT 9999 FEW054 17/14 Q1012 NOSIG
LEBL 250200Z 33008KT 9999 FEW054 17/14 Q1012 NOSIG
LEBL 250130Z 32009KT 9999 FEW054 17/14 Q1012 NOSIG
LEBL 250100Z 34008KT 9999 FEW055 17/13 Q1012 NOSIG
LEBL 250030Z 32005KT 290V360 9999 FEW050 17/14 Q1013 NOSIG
LEBL 250000Z 01006KT 340V040 9999 SCT045 18/14 Q1012 NOSIG
LEBL 242330Z 31003KT 9999 SCT045 18/14 Q1013 NOSIG
LEBL 242300Z 01005KT 340V040 9999 FEW035 SCT046 18/14 Q1012 NOSIG
LEBL 242230Z 03005KT 350V050 9999 FEW035 SCT050 19/15 Q1012 NOSIG
LEBL 242200Z 04010KT 010V070 9999 -RA FEW035 SCT045 19/15 Q1012 NOSIG
LEBL 242130Z 06009KT 9999 -RA SCT035 20/14 Q1012 NOSIG
LEBL 242100Z 06014KT 9999 FEW028 SCT055 20/15 Q1012 NOSIG
LEBL 242030Z 07014KT 040V100 9999 FEW028 BKN055 21/16 Q1012 NOSIG
LEBL 242000Z 07013KT 9999 FEW028 BKN055 21/16 Q1012 NOSIG
LEBL 241930Z 08013KT 9999 FEW028 BKN055 21/16 Q1012 NOSIG
LEBL 241900Z 08012KT 9999 SCT028 SCT038 BKN044 21/15 Q1012 NOSIG
LEBL 241830Z 08011KT 050V110 9999 SCT028 BKN044 21/16 Q1012 NOSIG
LEBL 241800Z 07010KT 040V100 9999 SCT025 21/16 Q1011 NOSIG
LEBL 241730Z 08010KT 030V110 9999 SCT025 21/15 Q1011 NOSIG
LEBL 241700Z 08010KT 9999 SCT025 21/16 Q1011 NOSIG
LEBL 241630Z 08009KT 040V100 9999 SCT025 22/15 Q1011 NOSIG
LEBL 241600Z 08010KT 9999 FEW028 SCT058 22/15 Q1011 NOSIG
LEBL 241530Z 08010KT 9999 FEW028 SCT058 22/15 Q1011 NOSIG
LEBL 241500Z 08012KT 040V110 9999 FEW028 SCT058 22/14 Q1011 NOSIG
LEBL 241430Z 07011KT 020V100 9999 FEW028 SCT058 22/14 Q1011 NOSIG
LEBL 241400Z 06011KT 9999 FEW028 SCT058 23/15 Q1012 NOSIG
LEBL 241330Z 07012KT 040V100 9999 FEW028 SCT058 22/15 Q1012 NOSIG
LEBL 241300Z 08011KT 040V110 9999 FEW028 SCT058 22/15 Q1012 NOSIG
LEBL 241230Z 08009KT 9999 FEW028 SCT058 22/15 Q1013 NOSIG
LEBL 241200Z 07010KT 040V100 9999 FEW026 SCT053 22/15 Q1013 NOSIG
LEBL 241130Z 05013KT 020V080 9999 FEW026 SCT050 22/16 Q1013 TEMPO TS FEW030CB
LEBL 241100Z 07009KT 9999 FEW024 SCT050 22/16 Q1013 TEMPO TS FEW030CB
LEBL 241030Z 07009KT 9999 FEW022 SCT032 BKN056 21/16 Q1014 TEMPO TS FEW030CB
LEBL 241000Z 07010KT 9999 FEW022 SCT032 BKN056 21/16 Q1014 TEMPO TS FEW030CB
LEBL 240930Z 07009KT 9999 FEW022 SCT032 BKN054 20/17 Q1014 NOSIG
LEBL 240900Z 05007KT 010V100 9999 FEW022 SCT032 BKN054 20/17 Q1014 NOSIG
LEBL 240830Z 03007KT 010V070 9999 FEW022 SCT032 BKN044 19/17 Q1013 NOSIG
LEBL 240800Z 05012KT 9999 FEW022 SCT028 BKN044 19/17 Q1013 NOSIG
LEBL 240730Z 07010KT 9999 FEW022 BKN032 BKN044 19/17 Q1013 NOSIG
LEBL 240700Z 08014KT 9999 FEW018 BKN027 BKN038 21/17 Q1013 NOSIG
LEBL 240630Z 08013KT 050V110 9999 FEW018 BKN027 BKN038 20/18 Q1013 NOSIG
LEBL 240600Z 07011KT 9999 FEW015 BKN020 BKN031 18/17 Q1013 NOSIG
LEBL 240530Z 03007KT 360V060 9999 FEW015 BKN019 BKN029 18/17 Q1013 NOSIG
LEBL 240500Z 35005KT 9999 FEW015 BKN028 OVC050 18/16 Q1013 NOSIG
LEBL 240430Z 03007KT 300V080 9999 FEW015 BKN050 18/16 Q1013 NOSIG
LEBL 240400Z VRB02KT 9999 FEW023 BKN046 18/16 Q1012 NOSIG
LEBL 240330Z VRB01KT 9999 FEW024 18/16 Q1013 NOSIG
LEBL 240300Z VRB01KT 9999 FEW035 17/16 Q1012 NOSIG
LEBL 240230Z VRB01KT 9999 VCTS FEW015 FEW030CB 17/16 Q1012 NOSIG
LEBL 240200Z 36002KT 9999 VCTS FEW015 FEW030CB 18/16 Q1012 NOSIG
LEBL 240130Z 04001KT 9999 VCTS FEW015 FEW030CB SCT060 18/15 Q1012 RERA NOSIG
LEBL 240100Z 13004KT 100V170 9999 VCTS FEW015 FEW030CB SCT060 17/16 Q1013 RERA NOSIG
LEBL 240030Z 15003KT 8000 TSRA FEW016 FEW030CB SCT050 16/16 Q1014 NOSIG
LEBL 240019Z 36002KT 9000 TSRA FEW016 FEW030CB BKN060 16/16 Q1014 NOSIG
LEBL 240007Z 34010KT 310V020 8000 TSRA FEW009 FEW030CB BKN060 16/16 Q1013 RERA NOSIG
LEBL 240000Z 32016G29KT 1500 +TSRA FEW015 FEW030CB SCT045 BKN060 16/15 Q1014 NOSIG
LEBL 232330Z VRB02KT 9999 FEW015 FEW030CB 21/19 Q1013 TEMPO 4000 TSSHRA
LEBL 232300Z 20006KT 170V240 9999 FEW015 FEW030CB 21/19 Q1014 TEMPO 4000 TSSHRA
LEBL 232230Z 25007KT 220V280 9999 FEW015 FEW030CB 21/19 Q1014 NOSIG
LEBL 232200Z 25004KT 180V330 9999 FEW015 21/19 Q1014 NOSIG
LEBL 232130Z 25008KT 9999 FEW011 21/19 Q1014 NOSIG